sensor_id;sensor_type;location;lat;lon;timestamp;temperature;humidity
30150;DHT22;16962;48.646;9.026;2023-01-23T00:01:48;-0.80;99.90
30150;DHT22;16962;48.646;9.026;2023-01-23T00:04:36;-0.80;99.90
30150;DHT22;16962;48.646;9.026;2023-01-23T00:07:23;-0.80;99.90
30150;DHT22;16962;48.646;9.026;2023-01-23T00:10:12;-0.90;99.90
30150;DHT22;16962;48.646;9.026;2023-01-23T00:12:59;-0.80;99.90
30150;DHT22;16962;48.646;9.026;2023-01-23T00:15:50;-0.90;99.90
30150;DHT22;16962;48.646;9.026;2023-01-23T00:18:37;-0.80;99.90
30150;DHT22;16962;48.646;9.026;2023-01-23T00:21:29;-0.90;99.90
30150;DHT22;16962;48.646;9.026;2023-01-23T00:24:16;-0.90;99.90
30150;DHT22;16962;48.646;9.026;2023-01-23T00:27:03;-0.90;99.90
30150;DHT22;16962;48.646;9.026;2023-01-23T00:29:55;-0.90;99.90
30150;DHT22;16962;48.646;9.026;2023-01-23T00:32:45;-1.00;99.90
30150;DHT22;16962;48.646;9.026;2023-01-23T00:35:34;-1.00;99.90
30150;DHT22;16962;48.646;9.026;2023-01-23T00:38:21;-1.10;99.90
30150;DHT22;16962;48.646;9.026;2023-01-23T00:41:08;-1.10;99.90
30150;DHT22;16962;48.646;9.026;2023-01-23T00:43:57;-1.20;99.90
30150;DHT22;16962;48.646;9.026;2023-01-23T00:46:44;-1.30;99.90
30150;DHT22;16962;48.646;9.026;2023-01-23T00:49:32;-1.30;99.90
30150;DHT22;16962;48.646;9.026;2023-01-23T00:52:21;-1.30;99.90
30150;DHT22;16962;48.646;9.026;2023-01-23T00:55:09;-1.30;99.90
30150;DHT22;16962;48.646;9.026;2023-01-23T00:57:57;-1.30;99.90
30150;DHT22;16962;48.646;9.026;2023-01-23T01:00:45;-1.20;99.90
30150;DHT22;16962;48.646;9.026;2023-01-23T01:03:35;-1.20;99.90
30150;DHT22;16962;48.646;9.026;2023-01-23T01:06:23;-1.20;99.90
30150;DHT22;16962;48.646;9.026;2023-01-23T01:09:10;-1.20;99.90
30150;DHT22;16962;48.646;9.026;2023-01-23T01:12:00;-1.20;99.90
30150;DHT22;16962;48.646;9.026;2023-01-23T01:14:47;-1.20;99.90
30150;DHT22;16962;48.646;9.026;2023-01-23T01:17:37;-1.20;99.90
30150;DHT22;16962;48.646;9.026;2023-01-23T01:20:25;-1.20;99.90
30150;DHT22;16962;48.646;9.026;2023-01-23T01:23:14;-1.10;99.90
30150;DHT22;16962;48.646;9.026;2023-01-23T01:26:01;-1.10;99.90
30150;DHT22;16962;48.646;9.026;2023-01-23T01:28:49;-1.10;99.90
30150;DHT22;16962;48.646;9.026;2023-01-23T01:31:41;-1.20;99.90
30150;DHT22;16962;48.646;9.026;2023-01-23T01:34:29;-1.20;99.90
30150;DHT22;16962;48.646;9.026;2023-01-23T01:37:17;-1.10;99.90
30150;DHT22;16962;48.646;9.026;2023-01-23T01:40:06;-1.10;99.90
30150;DHT22;16962;48.646;9.026;2023-01-23T01:42:57;-1.10;99.90
30150;DHT22;16962;48.646;9.026;2023-01-23T01:46:17;-1.10;99.90
30150;DHT22;16962;48.646;9.026;2023-01-23T01:49:16;-1.10;99.90
30150;DHT22;16962;48.646;9.026;2023-01-23T01:52:08;-1.10;99.90
30150;DHT22;16962;48.646;9.026;2023-01-23T01:55:05;-1.10;99.90
30150;DHT22;16962;48.646;9.026;2023-01-23T01:57:53;-1.00;99.90
30150;DHT22;16962;48.646;9.026;2023-01-23T02:00:41;-1.10;99.90
30150;DHT22;16962;48.646;9.026;2023-01-23T02:03:29;-1.10;99.90
30150;DHT22;16962;48.646;9.026;2023-01-23T02:06:19;-1.00;99.90
30150;DHT22;16962;48.646;9.026;2023-01-23T02:09:18;-1.00;99.90
30150;DHT22;16962;48.646;9.026;2023-01-23T02:12:07;-1.00;99.90
30150;DHT22;16962;48.646;9.026;2023-01-23T02:14:55;-1.00;99.90
30150;DHT22;16962;48.646;9.026;2023-01-23T02:17:43;-1.00;99.90
30150;DHT22;16962;48.646;9.026;2023-01-23T02:20:31;-1.00;99.90
30150;DHT22;16962;48.646;9.026;2023-01-23T02:26:43;-1.00;99.90
30150;DHT22;16962;48.646;9.026;2023-01-23T02:29:44;-1.00;99.90
30150;DHT22;16962;48.646;9.026;2023-01-23T02:32:31;-1.00;99.90
30150;DHT22;16962;48.646;9.026;2023-01-23T02:35:32;-1.00;99.90
30150;DHT22;16962;48.646;9.026;2023-01-23T02:38:25;-1.00;99.90
30150;DHT22;16962;48.646;9.026;2023-01-23T02:41:17;-1.00;99.90
30150;DHT22;16962;48.646;9.026;2023-01-23T02:44:13;-1.00;99.90
30150;DHT22;16962;48.646;9.026;2023-01-23T02:47:07;-1.00;99.90
30150;DHT22;16962;48.646;9.026;2023-01-23T02:50:01;-1.00;99.90
30150;DHT22;16962;48.646;9.026;2023-01-23T02:52:51;-1.00;99.90
30150;DHT22;16962;48.646;9.026;2023-01-23T02:55:43;-1.00;99.90
30150;DHT22;16962;48.646;9.026;2023-01-23T02:58:30;-1.00;99.90
30150;DHT22;16962;48.646;9.026;2023-01-23T03:01:36;-1.00;99.90
30150;DHT22;16962;48.646;9.026;2023-01-23T03:04:24;-1.00;99.90
30150;DHT22;16962;48.646;9.026;2023-01-23T03:07:12;-1.00;99.90
30150;DHT22;16962;48.646;9.026;2023-01-23T03:09:59;-1.10;99.90
30150;DHT22;16962;48.646;9.026;2023-01-23T03:12:47;-1.00;99.90
30150;DHT22;16962;48.646;9.026;2023-01-23T03:15:34;-1.10;99.90
30150;DHT22;16962;48.646;9.026;2023-01-23T03:18:25;-1.10;99.90
30150;DHT22;16962;48.646;9.026;2023-01-23T03:21:16;-1.00;99.90
30150;DHT22;16962;48.646;9.026;2023-01-23T03:24:04;-1.00;99.90
30150;DHT22;16962;48.646;9.026;2023-01-23T03:26:52;-1.10;99.90
30150;DHT22;16962;48.646;9.026;2023-01-23T03:29:40;-1.00;99.90
30150;DHT22;16962;48.646;9.026;2023-01-23T03:32:47;-1.00;99.90
30150;DHT22;16962;48.646;9.026;2023-01-23T03:35:51;-1.00;99.90
30150;DHT22;16962;48.646;9.026;2023-01-23T03:38:38;-1.00;99.90
30150;DHT22;16962;48.646;9.026;2023-01-23T03:41:46;-1.00;99.90
30150;DHT22;16962;48.646;9.026;2023-01-23T03:44:34;-1.00;99.90
30150;DHT22;16962;48.646;9.026;2023-01-23T03:47:21;-1.00;99.90
30150;DHT22;16962;48.646;9.026;2023-01-23T03:50:09;-1.00;99.90
30150;DHT22;16962;48.646;9.026;2023-01-23T03:52:57;-1.00;99.90
30150;DHT22;16962;48.646;9.026;2023-01-23T03:55:46;-1.00;99.90
30150;DHT22;16962;48.646;9.026;2023-01-23T03:58:36;-1.00;99.90
30150;DHT22;16962;48.646;9.026;2023-01-23T04:01:23;-1.00;99.90
30150;DHT22;16962;48.646;9.026;2023-01-23T04:04:11;-1.00;99.90
30150;DHT22;16962;48.646;9.026;2023-01-23T04:07:02;-1.00;99.90
30150;DHT22;16962;48.646;9.026;2023-01-23T04:09:52;-1.00;99.90
30150;DHT22;16962;48.646;9.026;2023-01-23T04:12:42;-1.00;99.90
30150;DHT22;16962;48.646;9.026;2023-01-23T04:15:32;-1.00;99.90
30150;DHT22;16962;48.646;9.026;2023-01-23T04:18:22;-1.00;99.90
30150;DHT22;16962;48.646;9.026;2023-01-23T04:21:10;-1.00;99.90
30150;DHT22;16962;48.646;9.026;2023-01-23T04:23:57;-1.00;99.90
30150;DHT22;16962;48.646;9.026;2023-01-23T04:26:45;-1.00;99.90
30150;DHT22;16962;48.646;9.026;2023-01-23T04:29:32;-1.00;99.90
30150;DHT22;16962;48.646;9.026;2023-01-23T04:32:21;-1.00;99.90
30150;DHT22;16962;48.646;9.026;2023-01-23T04:35:08;-1.00;99.90
30150;DHT22;16962;48.646;9.026;2023-01-23T04:38:02;-1.00;99.90
30150;DHT22;16962;48.646;9.026;2023-01-23T04:40:49;-1.00;99.90
30150;DHT22;16962;48.646;9.026;2023-01-23T04:43:37;-1.00;99.90
30150;DHT22;16962;48.646;9.026;2023-01-23T04:46:24;-1.00;99.90
30150;DHT22;16962;48.646;9.026;2023-01-23T04:49:12;-1.00;99.90
30150;DHT22;16962;48.646;9.026;2023-01-23T04:51:59;-1.00;99.90
30150;DHT22;16962;48.646;9.026;2023-01-23T04:54:48;-1.00;99.90
30150;DHT22;16962;48.646;9.026;2023-01-23T04:57:37;-1.00;99.90
30150;DHT22;16962;48.646;9.026;2023-01-23T05:00:25;-1.00;99.90
30150;DHT22;16962;48.646;9.026;2023-01-23T05:03:19;-1.00;99.90
30150;DHT22;16962;48.646;9.026;2023-01-23T05:06:20;-1.00;99.90
30150;DHT22;16962;48.646;9.026;2023-01-23T05:09:23;-1.00;99.90
30150;DHT22;16962;48.646;9.026;2023-01-23T05:12:13;-1.00;99.90
30150;DHT22;16962;48.646;9.026;2023-01-23T05:15:00;-1.00;99.90
30150;DHT22;16962;48.646;9.026;2023-01-23T05:17:48;-1.00;99.90
30150;DHT22;16962;48.646;9.026;2023-01-23T05:20:35;-1.00;99.90
30150;DHT22;16962;48.646;9.026;2023-01-23T05:23:22;-1.00;99.90
30150;DHT22;16962;48.646;9.026;2023-01-23T05:26:10;-1.00;99.90
30150;DHT22;16962;48.646;9.026;2023-01-23T05:28:58;-1.00;99.90
30150;DHT22;16962;48.646;9.026;2023-01-23T05:31:47;-1.00;99.90
30150;DHT22;16962;48.646;9.026;2023-01-23T05:34:34;-1.00;99.90
30150;DHT22;16962;48.646;9.026;2023-01-23T05:37:24;-1.00;99.90
30150;DHT22;16962;48.646;9.026;2023-01-23T05:40:15;-1.00;99.90
30150;DHT22;16962;48.646;9.026;2023-01-23T05:43:05;-0.90;99.90
30150;DHT22;16962;48.646;9.026;2023-01-23T05:45:53;-0.90;99.90
30150;DHT22;16962;48.646;9.026;2023-01-23T05:48:40;-0.90;99.90
30150;DHT22;16962;48.646;9.026;2023-01-23T05:51:28;-0.90;99.90
30150;DHT22;16962;48.646;9.026;2023-01-23T05:54:21;-0.90;99.90
30150;DHT22;16962;48.646;9.026;2023-01-23T05:57:09;-1.00;99.90
30150;DHT22;16962;48.646;9.026;2023-01-23T05:59:56;-0.90;99.90
30150;DHT22;16962;48.646;9.026;2023-01-23T06:02:43;-0.90;99.90
30150;DHT22;16962;48.646;9.026;2023-01-23T06:05:33;-1.00;99.90
30150;DHT22;16962;48.646;9.026;2023-01-23T06:08:20;-0.90;99.90
30150;DHT22;16962;48.646;9.026;2023-01-23T06:11:09;-0.90;99.90
30150;DHT22;16962;48.646;9.026;2023-01-23T06:13:56;-0.90;99.90
30150;DHT22;16962;48.646;9.026;2023-01-23T06:16:45;-0.90;99.90
30150;DHT22;16962;48.646;9.026;2023-01-23T06:19:34;-0.90;99.90
30150;DHT22;16962;48.646;9.026;2023-01-23T06:22:27;-0.90;99.90
30150;DHT22;16962;48.646;9.026;2023-01-23T06:25:17;-0.90;99.90
30150;DHT22;16962;48.646;9.026;2023-01-23T06:28:15;-0.90;99.90
30150;DHT22;16962;48.646;9.026;2023-01-23T06:31:05;-0.90;99.90
30150;DHT22;16962;48.646;9.026;2023-01-23T12:31:01;1.00;99.90
30150;DHT22;16962;48.646;9.026;2023-01-23T12:34:21;1.10;99.90
30150;DHT22;16962;48.646;9.026;2023-01-23T12:44:45;1.30;99.90
30150;DHT22;16962;48.646;9.026;2023-01-23T12:47:46;1.80;99.90
30150;DHT22;16962;48.646;9.026;2023-01-23T12:50:59;1.90;42.90
30150;DHT22;16962;48.646;9.026;2023-01-23T12:53:55;2.10;1.00
30150;DHT22;16962;48.646;9.026;2023-01-23T16:00:40;0.70;99.90
30150;DHT22;16962;48.646;9.026;2023-01-23T16:04:01;0.70;99.90
30150;DHT22;16962;48.646;9.026;2023-01-23T16:10:52;0.70;1.00
30150;DHT22;16962;48.646;9.026;2023-01-23T16:13:43;0.60;1.00
30150;DHT22;16962;48.646;9.026;2023-01-23T16:16:40;0.60;17.80
30150;DHT22;16962;48.646;9.026;2023-01-23T16:19:32;0.60;99.90
30150;DHT22;16962;48.646;9.026;2023-01-23T16:22:37;0.60;99.90
30150;DHT22;16962;48.646;9.026;2023-01-23T16:25:32;0.60;99.90
30150;DHT22;16962;48.646;9.026;2023-01-23T16:28:35;0.60;99.90
30150;DHT22;16962;48.646;9.026;2023-01-23T16:31:26;0.50;1.00
30150;DHT22;16962;48.646;9.026;2023-01-23T16:34:17;0.60;42.40
30150;DHT22;16962;48.646;9.026;2023-01-23T16:37:14;0.60;99.90
30150;DHT22;16962;48.646;9.026;2023-01-23T16:40:04;0.50;99.90
30150;DHT22;16962;48.646;9.026;2023-01-23T16:43:04;0.60;99.90
30150;DHT22;16962;48.646;9.026;2023-01-23T16:45:54;0.50;99.90
30150;DHT22;16962;48.646;9.026;2023-01-23T16:48:51;0.50;1.00
30150;DHT22;16962;48.646;9.026;2023-01-23T16:52:04;0.50;1.00
30150;DHT22;16962;48.646;9.026;2023-01-23T16:55:37;0.50;1.00
30150;DHT22;16962;48.646;9.026;2023-01-23T16:59:12;0.50;19.20
30150;DHT22;16962;48.646;9.026;2023-01-23T17:09:28;0.50;99.90
30150;DHT22;16962;48.646;9.026;2023-01-23T17:12:36;0.50;99.90
30150;DHT22;16962;48.646;9.026;2023-01-23T17:15:36;0.50;99.90
30150;DHT22;16962;48.646;9.026;2023-01-23T17:18:35;0.50;99.90
30150;DHT22;16962;48.646;9.026;2023-01-23T17:21:24;0.50;99.90
30150;DHT22;16962;48.646;9.026;2023-01-23T17:24:16;0.50;1.00
30150;DHT22;16962;48.646;9.026;2023-01-23T17:27:08;0.50;1.00
30150;DHT22;16962;48.646;9.026;2023-01-23T17:30:04;0.50;1.00
30150;DHT22;16962;48.646;9.026;2023-01-23T17:33:03;0.60;1.00
30150;DHT22;16962;48.646;9.026;2023-01-23T17:36:12;0.50;1.00
30150;DHT22;16962;48.646;9.026;2023-01-23T17:45:49;0.60;1.00
30150;DHT22;16962;48.646;9.026;2023-01-23T17:49:00;0.50;1.00
30150;DHT22;16962;48.646;9.026;2023-01-23T17:52:15;0.60;8.60
30150;DHT22;16962;48.646;9.026;2023-01-23T17:56:06;0.60;32.00
30150;DHT22;16962;48.646;9.026;2023-01-23T17:59:02;0.60;64.20
30150;DHT22;16962;48.646;9.026;2023-01-23T18:01:50;0.60;74.90
30150;DHT22;16962;48.646;9.026;2023-01-23T18:04:41;0.60;99.90
30150;DHT22;16962;48.646;9.026;2023-01-23T18:07:32;0.60;99.90
30150;DHT22;16962;48.646;9.026;2023-01-23T18:14:40;0.60;1.00
30150;DHT22;16962;48.646;9.026;2023-01-23T18:20:51;0.70;1.00
30150;DHT22;16962;48.646;9.026;2023-01-23T18:27:45;0.70;1.00
30150;DHT22;16962;48.646;9.026;2023-01-23T18:31:05;0.70;31.90
30150;DHT22;16962;48.646;9.026;2023-01-23T18:44:19;0.70;99.90
30150;DHT22;16962;48.646;9.026;2023-01-23T18:50:24;0.70;99.90
30150;DHT22;16962;48.646;9.026;2023-01-23T18:57:17;0.70;1.00
30150;DHT22;16962;48.646;9.026;2023-01-23T19:06:47;0.70;47.00
30150;DHT22;16962;48.646;9.026;2023-01-23T19:09:38;0.70;99.90
30150;DHT22;16962;48.646;9.026;2023-01-23T19:16:10;0.60;1.00
30150;DHT22;16962;48.646;9.026;2023-01-23T19:19:18;0.60;1.00
30150;DHT22;16962;48.646;9.026;2023-01-23T19:22:13;0.60;39.90
30150;DHT22;16962;48.646;9.026;2023-01-23T19:25:15;0.60;99.90
30150;DHT22;16962;48.646;9.026;2023-01-23T19:28:30;0.70;99.90
30150;DHT22;16962;48.646;9.026;2023-01-23T19:31:22;0.70;99.90
30150;DHT22;16962;48.646;9.026;2023-01-23T19:34:37;0.70;99.90
30150;DHT22;16962;48.646;9.026;2023-01-23T19:37:58;0.70;99.90
30150;DHT22;16962;48.646;9.026;2023-01-23T19:40:47;0.70;99.90
30150;DHT22;16962;48.646;9.026;2023-01-23T19:44:00;0.70;99.90
30150;DHT22;16962;48.646;9.026;2023-01-23T19:47:26;0.70;99.90
30150;DHT22;16962;48.646;9.026;2023-01-23T19:50:44;0.70;99.90
30150;DHT22;16962;48.646;9.026;2023-01-23T19:57:37;0.70;99.90
30150;DHT22;16962;48.646;9.026;2023-01-23T20:00:34;0.80;99.90
30150;DHT22;16962;48.646;9.026;2023-01-23T20:03:47;0.80;99.90
30150;DHT22;16962;48.646;9.026;2023-01-23T20:06:50;0.80;99.90
30150;DHT22;16962;48.646;9.026;2023-01-23T20:10:30;0.80;99.90
30150;DHT22;16962;48.646;9.026;2023-01-23T20:13:26;0.80;99.90
30150;DHT22;16962;48.646;9.026;2023-01-23T20:16:19;0.80;99.90
30150;DHT22;16962;48.646;9.026;2023-01-23T20:19:13;0.80;99.90
30150;DHT22;16962;48.646;9.026;2023-01-23T20:22:30;0.80;99.90
30150;DHT22;16962;48.646;9.026;2023-01-23T20:25:27;0.80;1.00
30150;DHT22;16962;48.646;9.026;2023-01-23T20:28:33;0.80;1.00
30150;DHT22;16962;48.646;9.026;2023-01-23T20:31:38;0.80;1.00
30150;DHT22;16962;48.646;9.026;2023-01-23T20:34:26;0.80;1.00
30150;DHT22;16962;48.646;9.026;2023-01-23T20:37:23;0.80;1.00
30150;DHT22;16962;48.646;9.026;2023-01-23T20:40:29;0.80;1.00
30150;DHT22;16962;48.646;9.026;2023-01-23T20:43:22;0.80;1.00
30150;DHT22;16962;48.646;9.026;2023-01-23T20:46:27;0.80;1.00
30150;DHT22;16962;48.646;9.026;2023-01-23T20:52:59;0.80;1.00
30150;DHT22;16962;48.646;9.026;2023-01-23T20:56:12;0.80;1.00
30150;DHT22;16962;48.646;9.026;2023-01-23T20:59:08;0.80;1.00
30150;DHT22;16962;48.646;9.026;2023-01-23T21:02:12;0.80;1.00
30150;DHT22;16962;48.646;9.026;2023-01-23T21:05:45;0.80;1.00
30150;DHT22;16962;48.646;9.026;2023-01-23T21:09:41;0.80;1.00
30150;DHT22;16962;48.646;9.026;2023-01-23T21:12:46;0.80;1.00
30150;DHT22;16962;48.646;9.026;2023-01-23T21:15:43;0.80;9.70
30150;DHT22;16962;48.646;9.026;2023-01-23T21:18:43;0.80;13.80
30150;DHT22;16962;48.646;9.026;2023-01-23T21:21:54;0.80;13.30
30150;DHT22;16962;48.646;9.026;2023-01-23T21:24:45;0.80;20.10
30150;DHT22;16962;48.646;9.026;2023-01-23T21:27:35;0.80;32.80
30150;DHT22;16962;48.646;9.026;2023-01-23T21:31:28;0.80;22.50
30150;DHT22;16962;48.646;9.026;2023-01-23T21:34:19;0.80;31.00
30150;DHT22;16962;48.646;9.026;2023-01-23T21:37:14;0.80;39.70
30150;DHT22;16962;48.646;9.026;2023-01-23T21:40:17;0.80;49.20
30150;DHT22;16962;48.646;9.026;2023-01-23T21:43:04;0.80;57.40
30150;DHT22;16962;48.646;9.026;2023-01-23T21:45:52;0.80;57.40
30150;DHT22;16962;48.646;9.026;2023-01-23T21:48:50;0.80;58.80
30150;DHT22;16962;48.646;9.026;2023-01-23T21:51:51;0.90;79.30
30150;DHT22;16962;48.646;9.026;2023-01-23T21:54:39;0.80;66.20
30150;DHT22;16962;48.646;9.026;2023-01-23T21:58:01;0.90;68.20
30150;DHT22;16962;48.646;9.026;2023-01-23T22:01:18;0.90;78.80
30150;DHT22;16962;48.646;9.026;2023-01-23T22:04:23;0.80;90.70
30150;DHT22;16962;48.646;9.026;2023-01-23T22:07:11;0.90;92.60
30150;DHT22;16962;48.646;9.026;2023-01-23T22:09:58;0.90;97.20
30150;DHT22;16962;48.646;9.026;2023-01-23T22:12:48;0.90;96.70
30150;DHT22;16962;48.646;9.026;2023-01-23T22:15:36;0.90;97.10
30150;DHT22;16962;48.646;9.026;2023-01-23T22:18:26;0.90;99.90
30150;DHT22;16962;48.646;9.026;2023-01-23T22:21:20;0.90;99.90
30150;DHT22;16962;48.646;9.026;2023-01-23T22:24:08;0.90;99.90
30150;DHT22;16962;48.646;9.026;2023-01-23T22:26:58;0.90;99.90
30150;DHT22;16962;48.646;9.026;2023-01-23T22:29:46;0.90;99.90
30150;DHT22;16962;48.646;9.026;2023-01-23T22:32:33;0.90;99.90
30150;DHT22;16962;48.646;9.026;2023-01-23T22:35:21;0.90;99.90
30150;DHT22;16962;48.646;9.026;2023-01-23T22:38:13;0.90;99.90
30150;DHT22;16962;48.646;9.026;2023-01-23T22:41:04;0.90;99.90
30150;DHT22;16962;48.646;9.026;2023-01-23T22:44:36;0.90;99.90
30150;DHT22;16962;48.646;9.026;2023-01-23T22:47:23;0.90;99.90
30150;DHT22;16962;48.646;9.026;2023-01-23T22:50:31;0.90;99.90
30150;DHT22;16962;48.646;9.026;2023-01-23T22:53:21;0.90;99.90
30150;DHT22;16962;48.646;9.026;2023-01-23T22:56:09;0.90;99.90
30150;DHT22;16962;48.646;9.026;2023-01-23T22:58:56;0.90;99.90
30150;DHT22;16962;48.646;9.026;2023-01-23T23:01:44;0.90;99.90
30150;DHT22;16962;48.646;9.026;2023-01-23T23:04:31;0.90;99.90
30150;DHT22;16962;48.646;9.026;2023-01-23T23:07:19;0.90;99.90
30150;DHT22;16962;48.646;9.026;2023-01-23T23:10:08;0.90;99.90
30150;DHT22;16962;48.646;9.026;2023-01-23T23:12:58;0.90;99.90
30150;DHT22;16962;48.646;9.026;2023-01-23T23:15:48;0.90;99.90
30150;DHT22;16962;48.646;9.026;2023-01-23T23:18:36;0.90;99.90
30150;DHT22;16962;48.646;9.026;2023-01-23T23:21:33;0.90;99.90
30150;DHT22;16962;48.646;9.026;2023-01-23T23:24:22;0.90;99.90
30150;DHT22;16962;48.646;9.026;2023-01-23T23:27:09;0.90;99.90
30150;DHT22;16962;48.646;9.026;2023-01-23T23:30:00;0.90;99.90
30150;DHT22;16962;48.646;9.026;2023-01-23T23:32:47;0.90;99.90
30150;DHT22;16962;48.646;9.026;2023-01-23T23:35:34;0.90;99.90
30150;DHT22;16962;48.646;9.026;2023-01-23T23:38:22;0.90;99.90
30150;DHT22;16962;48.646;9.026;2023-01-23T23:41:14;0.90;99.90
30150;DHT22;16962;48.646;9.026;2023-01-23T23:44:02;0.90;99.90
30150;DHT22;16962;48.646;9.026;2023-01-23T23:46:50;0.90;99.90
30150;DHT22;16962;48.646;9.026;2023-01-23T23:49:38;0.90;99.90
30150;DHT22;16962;48.646;9.026;2023-01-23T23:52:25;0.90;99.90
30150;DHT22;16962;48.646;9.026;2023-01-23T23:55:13;0.90;99.90
30150;DHT22;16962;48.646;9.026;2023-01-23T23:58:00;0.90;99.90
